Time;durP1;ratioP1;P1;durP2;ratioP2;P2;SDS_P1;SDS_P2;PMS_P1;PMS_P2;Temp;Humidity;BMP_temperature;BMP_pressure;BME280_temperature;BME280_humidity;BME280_pressure;Samples;Min_cycle;Max_cycle;Signal;HPM_P1;HPM_P2
2021/12/03 15:37:54;;;;;;;25.75;14.10;;;;;;;1.88;83.94;99883.65;5316631;54;46101;-78
2021/12/03 16:04:00;;;;;;;62.85;20.32;;;;;;;1.74;83.57;99880.45;5075595;57;1134910;-80
2021/12/03 16:09:10;;;;;;;200.37;67.30;;;;;;;1.72;83.71;99895.33;5111614;57;1134819;-79
2021/12/03 16:24:48;;;;;;;27.02;10.20;;;;;;;1.60;84.08;99903.78;5210877;56;1132855;-84
2021/12/03 16:51:34;;;;;;;12.28;6.97;;;;;;;1.35;84.14;99902.41;5204555;56;1132816;-83
2021/12/03 16:56:52;;;;;;;43.90;12.70;;;;;;;1.33;84.23;99912.52;5139110;56;1134861;-79
2021/12/03 17:07:35;;;;;;;52.07;21.03;;;;;;;1.23;84.35;99920.38;5144271;56;1137030;-78
2021/12/03 17:12:31;;;;;;;14.98;5.83;;;;;;;1.20;84.45;99915.34;5153383;56;1137242;-81
2021/12/03 17:59:52;;;;;;;744.33;255.53;;;;;;;0.94;84.87;99921.79;5184108;57;1132916;-83
2021/12/03 18:05:13;;;;;;;38.47;12.17;;;;;;;0.90;85.16;99921.12;5187961;56;1138996;-81
2021/12/03 18:10:27;;;;;;;75.37;24.75;;;;;;;0.88;85.02;99919.05;5165942;56;1134843;-81
2021/12/03 18:48:06;;;;;;;15.40;6.30;;;;;;;0.77;86.07;99911.33;5187001;57;1134744;-83
2021/12/03 18:53:05;;;;;;;25.97;8.13;;;;;;;0.74;86.27;99919.31;5141763;57;1134950;-81
2021/12/03 18:58:08;;;;;;;49.43;12.07;;;;;;;0.71;86.38;99909.88;5111712;57;1134820;-83
2021/12/03 19:03:25;;;;;;;33.60;9.23;;;;;;;0.70;86.61;99906.89;5050560;57;1137256;-83
2021/12/03 19:08:36;;;;;;;35.20;12.00;;;;;;;0.70;86.70;99907.73;5123500;57;1135054;-83
2021/12/03 19:13:40;;;;;;;22.30;12.37;;;;;;;0.69;86.80;99909.11;5109912;56;1136956;-82
2021/12/03 19:18:48;;;;;;;23.90;10.53;;;;;;;0.69;87.01;99903.90;5095339;57;1136699;-82
2021/12/03 19:23:57;;;;;;;43.08;13.05;;;;;;;0.71;86.94;99896.87;5105089;57;1136892;-82
2021/12/03 19:29:05;;;;;;;78.97;17.43;;;;;;;0.72;86.95;99892.05;5085353;57;1136891;-83
2021/12/03 19:34:12;;;;;;;70.40;23.97;;;;;;;0.73;86.91;99891.14;5124020;57;1134761;-82
2021/12/03 19:39:19;;;;;;;25.63;9.77;;;;;;;0.74;86.90;99881.57;5097770;57;1135126;-82
2021/12/03 19:50:04;;;;;;;26.10;8.80;;;;;;;0.72;86.64;99876.44;5102680;56;1132683;-83
2021/12/03 19:55:05;;;;;;;17.93;6.37;;;;;;;0.70;86.51;99888.67;5030782;57;1132624;-84
2021/12/03 20:00:13;;;;;;;45.53;10.07;;;;;;;0.68;86.39;99873.13;5071107;58;1132733;-84
2021/12/03 20:05:20;;;;;;;11.47;5.20;;;;;;;0.69;86.59;99866.16;5080188;57;1134829;-85
2021/12/03 20:10:27;;;;;;;18.50;6.90;;;;;;;0.69;86.43;99867.47;5036878;57;1133052;-82
2021/12/03 20:15:44;;;;;;;25.97;7.87;;;;;;;0.68;86.44;99862.72;5011538;58;1133071;-83
2021/12/03 20:20:43;;;;;;;22.70;6.87;;;;;;;0.69;86.39;99858.36;5103201;57;1130607;-83
2021/12/03 20:31:15;;;;;;;28.90;11.63;;;;;;;0.67;86.46;99840.67;5116652;57;1136857;-83
2021/12/03 20:41:41;;;;;;;25.93;11.00;;;;;;;0.63;86.04;99815.25;5045120;58;1136971;-83
2021/12/03 20:52:08;;;;;;;28.57;9.20;;;;;;;0.56;85.43;99819.08;5038144;58;1134978;-83
2021/12/03 21:13:09;;;;;;;26.20;9.23;;;;;;;0.54;84.83;99819.60;5080650;58;1135207;-83
2021/12/03 21:23:17;;;;;;;25.83;9.47;;;;;;;0.55;83.64;99804.38;5164398;57;1134793;-83
2021/12/03 21:28:40;;;;;;;21.93;6.73;;;;;;;0.55;83.39;99804.38;5164508;56;1134878;-83
2021/12/03 21:44:02;;;;;;;18.67;5.73;;;;;;;0.56;83.41;99796.12;5164226;57;1134708;-83
2021/12/03 21:49:12;;;;;;;17.43;7.20;;;;;;;0.55;83.15;99797.03;5164178;57;1134824;-83
2021/12/03 21:54:19;;;;;;;16.00;6.10;;;;;;;0.56;83.61;99807.37;5163887;57;1134985;-83
2021/12/03 21:59:25;;;;;;;21.57;6.63;;;;;;;0.57;83.35;99801.70;5164286;57;1134858;-84
2021/12/03 22:04:31;;;;;;;16.67;5.47;;;;;;;0.56;83.16;99781.35;5164164;56;1134891;-83
2021/12/03 22:09:36;;;;;;;8.50;4.07;;;;;;;0.55;83.30;99765.36;5164302;56;1132749;-84
2021/12/03 22:14:42;;;;;;;11.18;5.35;;;;;;;0.54;83.07;99772.77;5154812;56;1130598;-83
2021/12/03 22:19:48;;;;;;;16.07;6.00;;;;;;;0.53;83.09;99761.14;5080121;57;1132666;-84
2021/12/03 22:24:53;;;;;;;21.37;7.23;;;;;;;0.55;83.66;99748.91;5080306;57;1132911;-84
2021/12/03 22:29:59;;;;;;;17.17;6.87;;;;;;;0.56;83.47;99750.13;5080183;57;1132626;-82
2021/12/03 22:35:06;;;;;;;15.53;6.07;;;;;;;0.52;83.34;99743.84;5080180;58;1132685;-83
2021/12/03 22:40:12;;;;;;;19.03;7.27;;;;;;;0.49;83.31;99739.63;5075913;57;1133186;-84
2021/12/03 22:45:24;;;;;;;23.03;8.20;;;;;;;0.49;83.64;99737.02;5068164;58;1132662;-83
2021/12/03 22:50:44;;;;;;;15.47;6.13;;;;;;;0.48;83.51;99727.53;5067982;58;1132768;-84
2021/12/03 22:55:39;;;;;;;18.57;8.63;;;;;;;0.48;83.47;99729.29;5066219;58;1132966;-84
2021/12/03 23:00:58;;;;;;;21.13;8.13;;;;;;;0.45;83.63;99726.41;5068020;58;1132707;-84
2021/12/03 23:06:05;;;;;;;21.97;8.03;;;;;;;0.42;83.83;99717.91;5068213;58;1132666;-84
2021/12/03 23:11:11;;;;;;;20.75;8.98;;;;;;;0.40;84.05;99698.47;5068288;58;1132739;-84
2021/12/03 23:16:16;;;;;;;14.57;6.97;;;;;;;0.36;84.19;99686.52;5068195;58;1132710;-84
2021/12/03 23:21:22;;;;;;;18.23;7.57;;;;;;;0.34;84.22;99676.19;5066408;57;1130637;-84
2021/12/03 23:26:28;;;;;;;19.70;8.00;;;;;;;0.34;84.04;99665.78;5060351;57;1130772;-83
2021/12/03 23:31:35;;;;;;;10.67;4.97;;;;;;;0.36;84.24;99661.81;5060319;57;1134787;-85
2021/12/03 23:36:46;;;;;;;14.30;6.70;;;;;;;0.35;83.94;99656.23;5060075;58;1134800;-84
2021/12/03 23:41:51;;;;;;;11.95;6.17;;;;;;;0.39;83.99;99649.97;5066665;57;1134784;-84
2021/12/03 23:46:57;;;;;;;16.30;6.83;;;;;;;0.40;83.94;99646.45;5071212;57;1134787;-83
2021/12/03 23:52:02;;;;;;;16.70;7.08;;;;;;;0.41;83.78;99626.48;5070869;58;1134723;-84
2021/12/03 23:57:11;;;;;;;13.80;6.03;;;;;;;0.42;83.87;99625.56;5071447;58;1134696;-83
